createdAt,value
2022-10-03T00:00:30.039Z,1005.31
2022-10-03T00:01:30.078Z,1005.50
2022-10-03T00:02:30.069Z,1005.43
2022-10-03T00:03:29.997Z,1005.42
2022-10-03T00:04:29.976Z,1005.42
2022-10-03T00:05:29.970Z,1005.37
2022-10-03T00:06:29.996Z,1005.47
2022-10-03T00:07:29.949Z,1005.39
2022-10-03T00:08:29.942Z,1005.45
2022-10-03T00:09:29.931Z,1005.47
2022-10-03T00:10:29.921Z,1005.48
2022-10-03T00:11:29.941Z,1005.48
2022-10-03T00:12:29.906Z,1005.51
2022-10-03T00:13:29.902Z,1005.45
2022-10-03T00:14:29.893Z,1005.54
2022-10-03T00:15:29.877Z,1005.59
2022-10-03T00:16:29.934Z,1005.59
2022-10-03T00:17:29.867Z,1005.59
2022-10-03T00:18:29.854Z,1005.53
2022-10-03T00:19:29.849Z,1005.58
2022-10-03T00:20:29.838Z,1005.66
2022-10-03T00:21:29.864Z,1005.63
2022-10-03T00:22:29.825Z,1005.64
2022-10-03T00:23:29.820Z,1005.65
2022-10-03T00:24:29.813Z,1005.64
2022-10-03T00:25:29.828Z,1005.66
2022-10-03T00:26:29.794Z,1005.75
2022-10-03T00:27:29.782Z,1005.67
2022-10-03T00:28:29.792Z,1005.73
2022-10-03T00:29:29.764Z,1005.76
2022-10-03T00:30:29.782Z,1005.71
2022-10-03T00:31:29.801Z,1005.75
2022-10-03T00:32:29.741Z,1005.76
2022-10-03T00:33:29.726Z,1005.75
2022-10-03T00:34:29.724Z,1005.77
2022-10-03T00:35:29.747Z,1005.84
2022-10-03T00:36:29.701Z,1005.81
2022-10-03T00:37:29.698Z,1005.85
2022-10-03T00:38:29.688Z,1005.79
2022-10-03T00:39:29.667Z,1005.83
2022-10-03T00:40:29.705Z,1005.88
2022-10-03T00:41:29.660Z,1005.88
2022-10-03T00:42:29.659Z,1005.79
2022-10-03T00:43:29.646Z,1005.86
2022-10-03T00:44:29.634Z,1005.85
2022-10-03T00:45:29.655Z,1005.95
2022-10-03T00:46:29.654Z,1005.92
2022-10-03T00:47:29.624Z,1005.84
2022-10-03T00:48:29.597Z,1005.88
2022-10-03T00:49:29.591Z,1005.94
2022-10-03T00:50:29.614Z,1005.87
2022-10-03T00:51:29.576Z,1005.88
2022-10-03T00:52:29.564Z,1005.88
2022-10-03T00:53:29.561Z,1005.86
2022-10-03T00:54:29.551Z,1005.91
2022-10-03T00:55:29.580Z,1005.95
2022-10-03T00:56:29.535Z,1005.88
2022-10-03T00:57:29.530Z,1005.95
2022-10-03T00:58:29.521Z,1005.90
2022-10-03T00:59:29.516Z,1005.91
2022-10-03T01:00:29.542Z,1005.94
2022-10-03T01:01:29.510Z,1005.93
2022-10-03T01:02:29.559Z,1005.92
2022-10-03T01:03:29.526Z,1005.96
2022-10-03T01:04:29.522Z,1005.91
2022-10-03T01:05:29.468Z,1005.90
2022-10-03T01:06:29.487Z,1005.89
2022-10-03T01:07:29.456Z,1005.90
2022-10-03T01:08:29.443Z,1005.88
2022-10-03T01:09:29.436Z,1005.85
2022-10-03T01:10:29.418Z,1005.89
2022-10-03T01:11:29.511Z,1005.90
2022-10-03T01:12:29.409Z,1005.87
2022-10-03T01:13:29.391Z,1005.88
2022-10-03T01:14:29.387Z,1005.87
2022-10-03T01:15:29.383Z,1005.92
2022-10-03T01:16:29.509Z,1005.82
2022-10-03T01:17:29.372Z,1005.86
2022-10-03T01:18:29.355Z,1005.84
2022-10-03T01:19:29.348Z,1005.84
2022-10-03T01:20:29.339Z,1005.76
2022-10-03T01:21:29.434Z,1005.86
2022-10-03T01:22:29.322Z,1005.86
2022-10-03T01:23:29.317Z,1005.80
2022-10-03T01:24:29.303Z,1005.87
2022-10-03T01:25:29.301Z,1005.89
2022-10-03T01:26:29.359Z,1005.85
2022-10-03T01:27:29.281Z,1005.88
2022-10-03T01:28:29.288Z,1005.89
2022-10-03T01:29:29.267Z,1005.91
2022-10-03T01:30:29.249Z,1005.91
2022-10-03T01:31:29.312Z,1005.88
2022-10-03T01:32:29.237Z,1005.85
2022-10-03T01:33:29.220Z,1005.88
2022-10-03T01:34:29.221Z,1005.87
2022-10-03T01:35:29.216Z,1005.94
2022-10-03T01:36:29.246Z,1005.91
2022-10-03T01:37:29.194Z,1005.96
2022-10-03T01:38:29.189Z,1005.96
2022-10-03T01:39:29.176Z,1005.90
2022-10-03T01:40:29.220Z,1005.92
2022-10-03T01:41:29.201Z,1005.96
2022-10-03T01:42:29.170Z,1005.99
2022-10-03T01:43:29.150Z,1006.05
2022-10-03T01:44:29.143Z,1006.06
2022-10-03T01:45:29.128Z,1006.02
2022-10-03T01:46:29.230Z,1006.01
2022-10-03T01:47:29.119Z,1006.01
2022-10-03T01:48:29.106Z,1006.05
2022-10-03T01:49:29.093Z,1006.03
2022-10-03T01:50:29.112Z,1006.08
2022-10-03T01:51:29.106Z,1006.07
2022-10-03T01:52:29.074Z,1006.08
2022-10-03T01:53:29.062Z,1006.07
2022-10-03T01:54:29.056Z,1006.09
2022-10-03T01:55:29.068Z,1006.15
2022-10-03T01:56:29.032Z,1006.10
2022-10-03T01:57:29.067Z,1006.09
2022-10-03T01:58:29.021Z,1006.09
2022-10-03T01:59:29.004Z,1006.16
2022-10-03T02:00:29.026Z,1006.19
2022-10-03T02:01:28.999Z,1006.17
2022-10-03T02:02:29.067Z,1006.14
2022-10-03T02:03:28.969Z,1006.16
2022-10-03T02:04:28.957Z,1006.19
2022-10-03T02:05:28.980Z,1006.18
2022-10-03T02:06:28.942Z,1006.18
2022-10-03T02:07:28.932Z,1006.19
2022-10-03T02:08:28.939Z,1006.17
2022-10-03T02:09:28.950Z,1006.15
2022-10-03T02:10:28.914Z,1006.16
2022-10-03T02:11:28.908Z,1006.26
2022-10-03T02:12:28.899Z,1006.25
2022-10-03T02:13:28.890Z,1006.30
2022-10-03T02:14:28.920Z,1006.27
2022-10-03T02:15:28.871Z,1006.31
2022-10-03T02:16:28.912Z,1006.27
2022-10-03T02:17:28.885Z,1006.31
2022-10-03T02:18:28.854Z,1006.30
2022-10-03T02:19:28.863Z,1006.36
2022-10-03T02:20:28.820Z,1006.36
2022-10-03T02:21:28.836Z,1006.39
2022-10-03T02:22:28.808Z,1006.34
2022-10-03T02:23:28.804Z,1006.44
2022-10-03T02:24:28.824Z,1006.47
2022-10-03T02:25:28.786Z,1006.47
2022-10-03T02:26:28.775Z,1006.47
2022-10-03T02:27:28.763Z,1006.44
2022-10-03T02:28:29.790Z,1006.49
2022-10-03T02:29:28.783Z,1006.52
2022-10-03T02:30:28.734Z,1006.54
2022-10-03T02:31:28.818Z,1006.47
2022-10-03T02:32:28.723Z,1006.51
2022-10-03T02:33:28.702Z,1006.52
2022-10-03T02:34:29.742Z,1006.53
2022-10-03T02:35:28.698Z,1006.52
2022-10-03T02:36:28.689Z,1006.55
2022-10-03T02:37:28.676Z,1006.56
2022-10-03T02:38:28.673Z,1006.56
2022-10-03T02:39:28.665Z,1006.56
2022-10-03T02:40:28.685Z,1006.54
2022-10-03T02:41:28.642Z,1006.54
2022-10-03T02:42:28.627Z,1006.60
2022-10-03T02:43:29.633Z,1006.61
2022-10-03T02:44:28.632Z,1006.57
2022-10-03T02:45:28.700Z,1006.60
2022-10-03T02:46:28.624Z,1006.58
2022-10-03T02:47:28.602Z,1006.61
2022-10-03T02:48:32.561Z,1006.57
2022-10-03T02:49:29.583Z,1006.60
2022-10-03T02:50:28.608Z,1006.58
2022-10-03T02:51:28.572Z,1006.61
2022-10-03T02:52:28.558Z,1006.59
2022-10-03T02:53:28.543Z,1006.69
2022-10-03T02:54:28.539Z,1006.66
2022-10-03T02:55:28.557Z,1006.68
2022-10-03T02:56:28.584Z,1006.67
2022-10-03T02:57:28.514Z,1006.65
2022-10-03T02:58:28.508Z,1006.66
2022-10-03T02:59:28.504Z,1006.69
2022-10-03T03:00:28.515Z,1006.70
2022-10-03T03:01:28.623Z,1006.65
2022-10-03T03:02:28.534Z,1006.64
2022-10-03T03:03:28.461Z,1006.66
2022-10-03T03:04:28.456Z,1006.62
2022-10-03T03:05:28.478Z,1006.56
2022-10-03T03:06:28.508Z,1006.63
2022-10-03T03:07:28.430Z,1006.62
2022-10-03T03:08:28.426Z,1006.66
2022-10-03T03:09:28.411Z,1006.60
2022-10-03T03:10:28.435Z,1006.61
2022-10-03T03:11:28.400Z,1006.70
2022-10-03T03:12:28.390Z,1006.66
2022-10-03T03:13:28.386Z,1006.72
2022-10-03T03:14:28.364Z,1006.73
2022-10-03T03:15:28.425Z,1006.72
2022-10-03T03:16:28.475Z,1006.69
2022-10-03T03:17:28.344Z,1006.67
2022-10-03T03:18:28.345Z,1006.64
2022-10-03T03:19:28.331Z,1006.72
2022-10-03T03:20:28.364Z,1006.67
2022-10-03T03:21:28.321Z,1006.65
2022-10-03T03:22:28.307Z,1006.67
2022-10-03T03:23:28.297Z,1006.75
2022-10-03T03:24:28.299Z,1006.76
2022-10-03T03:25:28.312Z,1006.73
2022-10-03T03:26:28.295Z,1006.78
2022-10-03T03:27:28.274Z,1006.83
2022-10-03T03:28:28.278Z,1006.84
2022-10-03T03:29:28.251Z,1006.82
2022-10-03T03:30:28.236Z,1006.81
2022-10-03T03:31:28.287Z,1006.79
2022-10-03T03:32:28.246Z,1006.74
2022-10-03T03:33:28.247Z,1006.75
2022-10-03T03:34:28.219Z,1006.74
2022-10-03T03:35:28.199Z,1006.69
2022-10-03T03:36:28.239Z,1006.69
2022-10-03T03:37:28.191Z,1006.72
2022-10-03T03:38:28.173Z,1006.73
2022-10-03T03:39:28.174Z,1006.71
2022-10-03T03:40:28.186Z,1006.69
2022-10-03T03:41:28.151Z,1006.72
2022-10-03T03:42:28.141Z,1006.76
2022-10-03T03:43:28.133Z,1006.78
2022-10-03T03:44:28.125Z,1006.75
2022-10-03T03:45:28.168Z,1006.81
2022-10-03T03:46:28.105Z,1006.79
2022-10-03T03:47:28.104Z,1006.81
2022-10-03T03:48:28.091Z,1006.76
2022-10-03T03:49:28.080Z,1006.87
2022-10-03T03:50:28.067Z,1006.87
2022-10-03T03:51:28.091Z,1006.90
2022-10-03T03:52:28.057Z,1006.94
2022-10-03T03:53:28.053Z,1006.88
2022-10-03T03:54:28.041Z,1006.96
2022-10-03T03:55:28.055Z,1007.02
2022-10-03T03:56:28.058Z,1006.98
2022-10-03T03:57:28.027Z,1006.93
2022-10-03T03:58:28.067Z,1006.93
2022-10-03T03:59:27.998Z,1007.00
2022-10-03T04:00:28.003Z,1006.99
2022-10-03T04:01:28.047Z,1006.95
2022-10-03T04:02:28.012Z,1006.99
2022-10-03T04:03:27.966Z,1006.88
2022-10-03T04:04:27.970Z,1006.99
2022-10-03T04:05:28.953Z,1006.92
2022-10-03T04:06:27.982Z,1006.97
2022-10-03T04:07:27.938Z,1006.95
2022-10-03T04:08:27.935Z,1006.97
2022-10-03T04:09:27.911Z,1006.97
2022-10-03T04:10:27.910Z,1006.99
2022-10-03T04:11:27.920Z,1007.01
2022-10-03T04:12:27.886Z,1006.97
2022-10-03T04:13:27.876Z,1007.02
2022-10-03T04:14:27.873Z,1006.91
2022-10-03T04:15:27.858Z,1006.99
2022-10-03T04:16:27.932Z,1007.01
2022-10-03T04:17:27.845Z,1007.03
2022-10-03T04:18:27.836Z,1006.95
2022-10-03T04:19:27.841Z,1006.96
2022-10-03T04:20:27.824Z,1006.98
2022-10-03T04:21:27.854Z,1007.00
2022-10-03T04:22:27.817Z,1006.94
2022-10-03T04:23:27.799Z,1006.93
2022-10-03T04:24:27.796Z,1006.90
2022-10-03T04:25:27.784Z,1007.01
2022-10-03T04:26:27.804Z,1006.92
2022-10-03T04:27:27.777Z,1006.94
2022-10-03T04:28:27.784Z,1006.95
2022-10-03T04:29:27.750Z,1006.99
2022-10-03T04:30:27.738Z,1007.00
2022-10-03T04:31:27.822Z,1006.98
2022-10-03T04:32:27.726Z,1006.95
2022-10-03T04:33:27.724Z,1007.02
2022-10-03T04:34:27.709Z,1006.98
2022-10-03T04:35:27.697Z,1007.01
2022-10-03T04:36:27.720Z,1007.02
2022-10-03T04:37:27.682Z,1007.05
2022-10-03T04:38:27.670Z,1007.00
2022-10-03T04:39:27.672Z,1007.00
2022-10-03T04:40:27.662Z,1007.03
2022-10-03T04:41:27.688Z,1007.04
2022-10-03T04:42:27.643Z,1006.99
2022-10-03T04:43:27.632Z,1007.03
2022-10-03T04:44:27.621Z,1007.02
2022-10-03T04:45:27.628Z,1007.06
2022-10-03T04:46:27.623Z,1007.01
2022-10-03T04:47:28.595Z,1007.01
2022-10-03T04:48:27.589Z,1006.97
2022-10-03T04:49:27.587Z,1006.97
2022-10-03T04:50:27.575Z,1006.94
2022-10-03T04:51:27.614Z,1006.94
2022-10-03T04:52:27.549Z,1006.98
2022-10-03T04:53:27.552Z,1007.00
2022-10-03T04:54:27.551Z,1006.98
2022-10-03T04:55:27.557Z,1007.02
2022-10-03T04:56:27.560Z,1007.01
2022-10-03T04:57:27.521Z,1007.02
2022-10-03T04:58:27.509Z,1007.11
2022-10-03T04:59:27.497Z,1007.04
2022-10-03T05:00:27.519Z,1007.08
2022-10-03T05:01:27.622Z,1007.04
2022-10-03T05:02:27.563Z,1007.11
2022-10-03T05:03:27.463Z,1007.04
2022-10-03T05:04:27.518Z,1007.06
2022-10-03T05:05:27.561Z,1007.03
2022-10-03T05:06:27.468Z,1007.05
2022-10-03T05:07:27.425Z,1006.99
2022-10-03T05:08:27.414Z,1006.96
2022-10-03T05:09:27.411Z,1006.99
2022-10-03T05:10:27.416Z,1007.00
2022-10-03T05:11:27.432Z,1006.98
2022-10-03T05:12:27.393Z,1007.01
2022-10-03T05:13:27.386Z,1007.04
2022-10-03T05:14:27.384Z,1006.99
2022-10-03T05:15:27.378Z,1007.02
2022-10-03T05:16:27.439Z,1007.14
2022-10-03T05:17:27.356Z,1007.03
2022-10-03T05:18:27.355Z,1007.07
2022-10-03T05:19:27.320Z,1007.03
2022-10-03T05:20:28.337Z,1007.05
2022-10-03T05:21:27.339Z,1007.07
2022-10-03T05:22:27.302Z,1007.06
2022-10-03T05:23:27.295Z,1007.06
2022-10-03T05:24:27.284Z,1007.13
2022-10-03T05:25:27.273Z,1007.11
2022-10-03T05:26:46.494Z,1007.10
2022-10-03T05:27:29.266Z,1007.11
2022-10-03T05:28:27.304Z,1007.10
2022-10-03T05:29:27.238Z,1007.13
2022-10-03T05:30:27.234Z,1007.12
2022-10-03T05:31:27.336Z,1007.14
2022-10-03T05:32:27.254Z,1007.16
2022-10-03T05:33:27.207Z,1007.12
2022-10-03T05:34:27.398Z,1007.07
2022-10-03T05:35:27.193Z,1007.12
2022-10-03T05:36:27.271Z,1007.20
2022-10-03T05:37:27.180Z,1007.15
2022-10-03T05:38:27.191Z,1007.13
2022-10-03T05:39:27.166Z,1007.17
2022-10-03T05:40:27.168Z,1007.19
2022-10-03T05:41:27.179Z,1007.20
2022-10-03T05:42:27.139Z,1007.16
2022-10-03T05:43:27.134Z,1007.29
2022-10-03T05:44:27.119Z,1007.27
2022-10-03T05:45:27.149Z,1007.26
2022-10-03T05:46:27.252Z,1007.27
2022-10-03T05:47:27.091Z,1007.32
2022-10-03T05:48:27.095Z,1007.29
2022-10-03T05:49:27.098Z,1007.32
2022-10-03T05:50:27.073Z,1007.36
2022-10-03T05:51:27.105Z,1007.35
2022-10-03T05:52:27.057Z,1007.38
2022-10-03T05:53:27.042Z,1007.39
2022-10-03T05:54:28.047Z,1007.40
2022-10-03T05:55:27.095Z,1007.42
2022-10-03T05:56:27.100Z,1007.39
2022-10-03T05:57:27.048Z,1007.40
2022-10-03T05:58:27.009Z,1007.36
2022-10-03T05:59:27.066Z,1007.44
2022-10-03T06:00:27.007Z,1007.44
2022-10-03T06:01:26.974Z,1007.42
2022-10-03T06:02:27.254Z,1007.47
2022-10-03T06:03:27.030Z,1007.44
2022-10-03T06:04:26.952Z,1007.45
2022-10-03T06:05:26.948Z,1007.43
2022-10-03T06:06:26.940Z,1007.48
2022-10-03T06:07:26.989Z,1007.55
2022-10-03T06:08:26.924Z,1007.51
2022-10-03T06:09:26.939Z,1007.52
2022-10-03T06:10:26.901Z,1007.49
2022-10-03T06:11:26.893Z,1007.45
2022-10-03T06:12:26.914Z,1007.46
2022-10-03T06:14:34.030Z,1007.55
2022-10-03T06:15:26.863Z,1007.49
2022-10-03T06:16:26.922Z,1007.56
2022-10-03T06:17:26.880Z,1007.57
2022-10-03T06:18:26.837Z,1007.57
2022-10-03T06:19:45.711Z,1007.60
2022-10-03T06:20:26.823Z,1007.61
2022-10-03T06:22:00.577Z,1007.55
2022-10-03T06:22:26.835Z,1007.49
2022-10-03T06:23:26.806Z,1007.58
2022-10-03T06:24:26.807Z,1007.59
2022-10-03T06:25:26.781Z,1007.55
2022-10-03T06:26:41.578Z,1007.61
2022-10-03T06:27:26.798Z,1007.58
2022-10-03T06:28:26.836Z,1007.66
2022-10-03T06:29:26.749Z,1007.60
2022-10-03T06:30:26.798Z,1007.61
2022-10-03T06:31:31.709Z,1007.62
2022-10-03T06:32:28.763Z,1007.63
2022-10-03T06:33:26.796Z,1007.66
2022-10-03T06:34:26.711Z,1007.64
2022-10-03T06:35:27.285Z,1007.62
2022-10-03T06:36:26.693Z,1007.61
2022-10-03T06:37:26.712Z,1007.67
2022-10-03T06:38:26.689Z,1007.69
2022-10-03T06:40:17.083Z,1007.69
2022-10-03T06:40:26.705Z,1007.67
2022-10-03T06:41:26.672Z,1007.65
2022-10-03T06:42:26.673Z,1007.67
2022-10-03T06:43:26.621Z,1007.68
2022-10-03T06:44:27.695Z,1007.62
2022-10-03T06:45:30.807Z,1007.67
2022-10-03T06:46:28.313Z,1007.73
2022-10-03T06:47:26.654Z,1007.74
2022-10-03T06:48:26.591Z,1007.75
2022-10-03T06:49:41.205Z,1007.78
2022-10-03T06:50:33.225Z,1007.75
2022-10-03T06:51:52.091Z,1007.75
2022-10-03T06:52:27.295Z,1007.78
2022-10-03T06:53:26.540Z,1007.73
2022-10-03T06:54:27.569Z,1007.71
2022-10-03T06:55:26.572Z,1007.80
2022-10-03T06:56:26.588Z,1007.79
2022-10-03T06:57:26.510Z,1007.81
2022-10-03T06:58:26.528Z,1007.82
2022-10-03T06:59:26.539Z,1007.85
2022-10-03T07:00:26.492Z,1007.82
2022-10-03T07:01:26.509Z,1007.81
2022-10-03T07:02:26.769Z,1007.86
2022-10-03T07:03:26.516Z,1007.80
2022-10-03T07:04:26.447Z,1007.84
2022-10-03T07:05:26.481Z,1007.81
2022-10-03T07:06:26.431Z,1007.84
2022-10-03T07:07:26.425Z,1007.81
2022-10-03T07:08:26.454Z,1007.78
2022-10-03T07:09:26.409Z,1007.83
2022-10-03T07:10:26.418Z,1007.85
2022-10-03T07:11:26.396Z,1007.80
2022-10-03T07:12:26.386Z,1007.74
2022-10-03T07:13:26.412Z,1007.75
2022-10-03T07:14:26.364Z,1007.78
2022-10-03T07:15:43.600Z,1007.78
2022-10-03T07:16:28.548Z,1007.82
2022-10-03T07:17:26.402Z,1007.81
2022-10-03T07:18:26.356Z,1007.79
2022-10-03T07:19:26.320Z,1007.76
2022-10-03T07:20:26.310Z,1007.74
2022-10-03T07:21:26.306Z,1007.79
2022-10-03T07:22:26.364Z,1007.85
2022-10-03T07:23:26.289Z,1007.78
2022-10-03T07:24:26.277Z,1007.77
2022-10-03T07:25:26.282Z,1007.77
2022-10-03T07:26:26.269Z,1007.79
2022-10-03T07:27:26.328Z,1007.70
2022-10-03T07:28:26.273Z,1007.80
2022-10-03T07:29:26.235Z,1007.76
2022-10-03T07:30:26.227Z,1007.83
2022-10-03T07:31:26.253Z,1007.90
2022-10-03T07:32:26.217Z,1007.88
2022-10-03T07:33:26.275Z,1007.88
2022-10-03T07:34:26.195Z,1007.92
2022-10-03T07:35:26.198Z,1007.90
2022-10-03T07:36:26.183Z,1007.84
2022-10-03T07:37:26.164Z,1007.84
2022-10-03T07:38:26.185Z,1007.84
2022-10-03T07:39:26.145Z,1007.86
2022-10-03T07:40:26.131Z,1007.90
2022-10-03T07:41:26.133Z,1007.87
2022-10-03T07:42:26.150Z,1007.93
2022-10-03T07:43:26.114Z,1007.93
2022-10-03T07:44:26.102Z,1007.97
2022-10-03T07:45:26.092Z,1007.90
2022-10-03T07:46:26.121Z,1007.96
2022-10-03T07:47:26.124Z,1007.93
2022-10-03T07:48:26.089Z,1008.02
2022-10-03T07:49:26.127Z,1007.99
2022-10-03T07:50:26.055Z,1007.97
2022-10-03T07:51:26.047Z,1007.95
2022-10-03T07:52:26.063Z,1007.96
2022-10-03T07:53:26.599Z,1007.99
2022-10-03T07:54:26.021Z,1008.02
2022-10-03T07:55:26.012Z,1008.00
2022-10-03T07:56:25.999Z,1008.05
2022-10-03T07:57:26.035Z,1008.01
2022-10-03T07:58:25.988Z,1008.00
2022-10-03T07:59:25.986Z,1008.02
2022-10-03T08:00:25.971Z,1007.94
2022-10-03T08:01:26.011Z,1008.00
2022-10-03T08:02:26.025Z,1007.98
2022-10-03T08:03:26.009Z,1007.98
2022-10-03T08:04:25.936Z,1008.02
2022-10-03T08:05:25.928Z,1008.02
2022-10-03T08:06:25.929Z,1007.98
2022-10-03T08:07:25.911Z,1008.07
2022-10-03T08:08:25.941Z,1008.04
2022-10-03T08:09:25.897Z,1008.03
2022-10-03T08:10:25.893Z,1008.06
2022-10-03T08:11:25.889Z,1008.12
2022-10-03T08:12:25.875Z,1008.07
2022-10-03T08:13:25.946Z,1008.12
2022-10-03T08:14:25.855Z,1008.12
2022-10-03T08:15:25.849Z,1008.08
2022-10-03T08:16:25.845Z,1008.10
2022-10-03T08:17:25.833Z,1008.16
2022-10-03T08:18:25.856Z,1008.12
2022-10-03T08:19:25.814Z,1008.10
2022-10-03T08:20:25.806Z,1008.16
2022-10-03T08:21:25.795Z,1008.17
2022-10-03T08:22:25.786Z,1008.09
2022-10-03T08:23:25.827Z,1008.14
2022-10-03T08:24:25.802Z,1008.09
2022-10-03T08:25:25.772Z,1008.14
2022-10-03T08:26:25.772Z,1008.16
2022-10-03T08:27:25.755Z,1008.24
2022-10-03T08:28:25.806Z,1008.20
2022-10-03T08:29:25.760Z,1008.19
2022-10-03T08:30:25.731Z,1008.19
2022-10-03T08:31:25.805Z,1008.23
2022-10-03T08:32:25.702Z,1008.19
2022-10-03T08:33:26.723Z,1008.24
2022-10-03T08:34:25.692Z,1008.17
2022-10-03T08:35:25.674Z,1008.22
2022-10-03T08:36:25.673Z,1008.20
2022-10-03T08:37:25.665Z,1008.29
2022-10-03T08:38:28.025Z,1008.30
2022-10-03T08:39:26.649Z,1008.21
2022-10-03T08:40:25.633Z,1008.19
2022-10-03T08:41:25.623Z,1008.17
2022-10-03T08:42:25.633Z,1008.20
2022-10-03T08:43:25.638Z,1008.19
2022-10-03T08:44:30.226Z,1008.18
2022-10-03T08:45:26.631Z,1008.15
2022-10-03T08:46:25.685Z,1008.20
2022-10-03T08:47:25.577Z,1008.14
2022-10-03T08:48:25.594Z,1008.21
2022-10-03T08:49:25.568Z,1008.15
2022-10-03T08:50:25.563Z,1008.18
2022-10-03T08:51:25.541Z,1008.15
2022-10-03T08:52:25.554Z,1008.18
2022-10-03T08:53:25.579Z,1008.19
2022-10-03T08:54:25.522Z,1008.15
2022-10-03T08:55:25.507Z,1008.12
2022-10-03T08:56:25.522Z,1008.21
2022-10-03T08:57:25.502Z,1008.19
2022-10-03T08:58:25.519Z,1008.19
2022-10-03T08:59:25.480Z,1008.22
2022-10-03T09:00:25.465Z,1008.17
2022-10-03T09:01:25.549Z,1008.19
2022-10-03T09:02:25.538Z,1008.24
2022-10-03T09:03:36.797Z,1008.20
2022-10-03T09:04:27.433Z,1008.16
2022-10-03T09:05:25.431Z,1008.25
2022-10-03T09:06:25.417Z,1008.17
2022-10-03T09:07:25.926Z,1008.22
2022-10-03T09:08:25.426Z,1008.25
2022-10-03T09:09:25.386Z,1008.17
2022-10-03T09:10:25.391Z,1008.23
2022-10-03T09:11:25.381Z,1008.25
2022-10-03T09:12:25.372Z,1008.26
2022-10-03T09:13:25.380Z,1008.23
2022-10-03T09:14:25.350Z,1008.26
2022-10-03T09:15:25.344Z,1008.26
2022-10-03T09:16:25.360Z,1008.21
2022-10-03T09:17:25.324Z,1008.19
2022-10-03T09:18:25.343Z,1008.20
2022-10-03T09:19:25.308Z,1008.16
2022-10-03T09:20:25.291Z,1008.20
2022-10-03T09:21:25.288Z,1008.24
2022-10-03T09:22:25.281Z,1008.14
2022-10-03T09:23:25.300Z,1008.16
2022-10-03T09:24:25.264Z,1008.20
2022-10-03T09:25:25.255Z,1008.21
2022-10-03T09:26:25.246Z,1008.21
2022-10-03T09:27:25.242Z,1008.15
2022-10-03T09:28:25.785Z,1008.19
2022-10-03T09:29:26.229Z,1008.19
2022-10-03T09:30:25.218Z,1008.10
2022-10-03T09:31:25.283Z,1008.19
2022-10-03T09:32:25.194Z,1008.15
2022-10-03T09:33:25.227Z,1008.10
2022-10-03T09:34:25.185Z,1008.10
2022-10-03T09:35:25.176Z,1008.10
2022-10-03T09:36:25.201Z,1008.09
2022-10-03T09:37:25.156Z,1008.10
2022-10-03T09:38:25.177Z,1008.12
2022-10-03T09:39:25.142Z,1008.14
2022-10-03T09:40:25.124Z,1008.16
2022-10-03T09:41:25.125Z,1008.16
2022-10-03T09:42:25.164Z,1008.23
2022-10-03T09:43:25.135Z,1008.12
2022-10-03T09:44:25.096Z,1008.14
2022-10-03T09:45:25.092Z,1008.15
2022-10-03T09:46:25.110Z,1008.13
2022-10-03T09:47:25.069Z,1008.09
2022-10-03T09:48:25.092Z,1008.09
2022-10-03T09:49:25.066Z,1008.05
2022-10-03T09:50:25.044Z,1008.11
2022-10-03T09:51:25.043Z,1008.19
2022-10-03T09:52:25.029Z,1008.06
2022-10-03T09:53:25.022Z,1008.11
2022-10-03T09:54:25.041Z,1008.15
2022-10-03T09:55:25.000Z,1008.14
2022-10-03T09:56:25.001Z,1008.11
2022-10-03T09:57:24.981Z,1008.11
2022-10-03T09:58:24.981Z,1008.08
2022-10-03T09:59:25.000Z,1008.05
2022-10-03T10:00:24.955Z,1008.05
2022-10-03T10:01:25.068Z,1008.13
2022-10-03T10:02:24.951Z,1008.02
2022-10-03T10:03:24.979Z,1008.02
2022-10-03T10:04:50.290Z,1008.03
2022-10-03T10:05:26.917Z,1008.04
2022-10-03T10:06:25.195Z,1008.03
2022-10-03T10:07:25.909Z,1008.10
2022-10-03T10:08:24.930Z,1008.05
2022-10-03T10:09:24.927Z,1008.11
2022-10-03T10:10:24.882Z,1008.12
2022-10-03T10:11:24.875Z,1008.08
2022-10-03T10:12:24.856Z,1008.13
2022-10-03T10:13:24.851Z,1008.10
2022-10-03T10:14:24.872Z,1008.10
2022-10-03T10:15:24.840Z,1008.11
2022-10-03T10:16:24.856Z,1008.09
2022-10-03T10:17:24.817Z,1008.11
2022-10-03T10:18:24.813Z,1008.09
2022-10-03T10:19:24.835Z,1008.07
2022-10-03T10:20:24.793Z,1008.06
2022-10-03T10:21:24.790Z,1008.04
2022-10-03T10:22:24.774Z,1008.01
2022-10-03T10:23:24.768Z,1007.96
2022-10-03T10:24:24.788Z,1008.00
2022-10-03T10:25:24.824Z,1008.06
2022-10-03T10:26:28.728Z,1007.94
2022-10-03T10:27:25.738Z,1007.86
2022-10-03T10:28:24.793Z,1007.94
2022-10-03T10:29:24.750Z,1007.91
2022-10-03T10:30:24.702Z,1007.92
2022-10-03T10:31:25.789Z,1007.91
2022-10-03T10:32:24.701Z,1007.87
2022-10-03T10:33:24.696Z,1007.92
2022-10-03T10:34:24.702Z,1007.90
2022-10-03T10:35:24.669Z,1007.90
2022-10-03T10:36:24.691Z,1007.76
2022-10-03T10:37:24.689Z,1007.85
2022-10-03T10:38:24.673Z,1007.81
2022-10-03T10:39:24.654Z,1007.91
2022-10-03T10:40:24.630Z,1007.85
2022-10-03T10:41:24.615Z,1007.94
2022-10-03T10:42:24.606Z,1007.88
2022-10-03T10:43:24.596Z,1007.97
2022-10-03T10:44:24.614Z,1007.91
2022-10-03T10:45:24.587Z,1007.87
2022-10-03T10:46:24.623Z,1007.87
2022-10-03T10:47:24.561Z,1007.89
2022-10-03T10:48:24.601Z,1007.88
2022-10-03T10:49:24.579Z,1007.95
2022-10-03T10:50:24.542Z,1007.90
2022-10-03T10:51:24.532Z,1007.82
2022-10-03T10:52:24.564Z,1007.81
2022-10-03T10:53:24.550Z,1007.79
2022-10-03T10:54:24.539Z,1007.81
2022-10-03T10:55:24.517Z,1007.78
2022-10-03T10:56:24.507Z,1007.81
2022-10-03T10:57:24.512Z,1007.82
2022-10-03T10:58:24.512Z,1007.80
2022-10-03T10:59:24.524Z,1007.84
2022-10-03T11:00:24.544Z,1007.74
2022-10-03T11:01:24.459Z,1007.71
2022-10-03T11:02:24.454Z,1007.68
2022-10-03T11:03:24.461Z,1007.72
2022-10-03T11:04:24.538Z,1007.75
2022-10-03T11:05:24.435Z,1007.72
2022-10-03T11:06:24.429Z,1007.76
2022-10-03T11:07:24.419Z,1007.72
2022-10-03T11:08:24.414Z,1007.76
2022-10-03T11:09:24.447Z,1007.74
2022-10-03T11:10:24.382Z,1007.68
2022-10-03T11:11:24.383Z,1007.75
2022-10-03T11:12:24.364Z,1007.79
2022-10-03T11:13:24.359Z,1007.77
2022-10-03T11:14:24.384Z,1007.77
2022-10-03T11:15:24.402Z,1007.76
2022-10-03T11:16:24.348Z,1007.69
2022-10-03T11:17:24.334Z,1007.73
2022-10-03T11:18:24.319Z,1007.71
2022-10-03T11:19:24.340Z,1007.63
2022-10-03T11:20:24.292Z,1007.72
2022-10-03T11:21:24.319Z,1007.70
2022-10-03T11:22:24.289Z,1007.65
2022-10-03T11:23:24.283Z,1007.58
2022-10-03T11:24:24.273Z,1007.62
2022-10-03T11:25:24.293Z,1007.57
2022-10-03T11:26:24.253Z,1007.56
2022-10-03T11:27:24.263Z,1007.56
2022-10-03T11:28:27.192Z,1007.66
2022-10-03T11:29:25.220Z,1007.59
2022-10-03T11:30:24.248Z,1007.46
2022-10-03T11:31:24.253Z,1007.53
2022-10-03T11:32:24.205Z,1007.65
2022-10-03T11:33:24.204Z,1007.60
2022-10-03T11:34:24.182Z,1007.58
2022-10-03T11:35:24.210Z,1007.54
2022-10-03T11:36:24.175Z,1007.52
2022-10-03T11:37:24.164Z,1007.47
2022-10-03T11:38:24.159Z,1007.53
2022-10-03T11:39:24.145Z,1007.48
2022-10-03T11:40:24.166Z,1007.48
2022-10-03T11:41:24.127Z,1007.59
2022-10-03T11:42:24.127Z,1007.55
2022-10-03T11:43:24.108Z,1007.59
2022-10-03T11:44:24.128Z,1007.54
2022-10-03T11:45:24.105Z,1007.44
2022-10-03T11:46:24.106Z,1007.52
2022-10-03T11:47:24.077Z,1007.58
2022-10-03T11:48:24.062Z,1007.51
2022-10-03T11:49:24.086Z,1007.50
2022-10-03T11:50:24.043Z,1007.50
2022-10-03T11:51:24.041Z,1007.47
2022-10-03T11:52:24.028Z,1007.48
2022-10-03T11:53:24.013Z,1007.40
2022-10-03T11:54:31.494Z,1007.37
2022-10-03T11:55:26.009Z,1007.41
2022-10-03T11:56:24.002Z,1007.39
2022-10-03T11:57:23.996Z,1007.39
2022-10-03T11:58:23.983Z,1007.39
2022-10-03T11:59:26.877Z,1007.39
2022-10-03T12:00:24.991Z,1007.39
2022-10-03T12:01:23.959Z,1007.32
2022-10-03T12:02:23.999Z,1007.35
2022-10-03T12:03:24.012Z,1007.37
2022-10-03T12:04:23.964Z,1007.39
2022-10-03T12:05:23.924Z,1007.34
2022-10-03T12:06:23.913Z,1007.37